Flight Track Log - Related Links

Times and Time Zones

All times are in EDT time to prevent confusion due to time zone crossing. See the N4324W flight status page for this flight to view local times or setup timezone preferences in your user account.

Time Position Orientation Groundspeed Altitude Reporting Facility
EDT Latitude Longitude Course Direction KTS MPH feet Rate Location/Type
Tue 10:46:17 AM 40.6794 -89.7919 354° North 170 196 3,900  Level Chicago Center
Tue 10:47:19 AM 40.7322 -89.8031 351° North 170 196 5,100 1,016 Climbing Chicago Center
Tue 10:48:21 AM 40.7750 -89.8125 351° North 164 189 6,000 823 Climbing Chicago Center
Tue 10:49:00 AM 40.9389 -89.7343 353° North  Level FlightAware Approximate
Tue 10:49:23 AM 40.8194 -89.8203 352° North 161 185 6,800  Level Chicago Center
Tue 10:50:00 AM 40.9873 -89.7423 353° North  Level FlightAware Approximate
Tue 10:50:25 AM 40.8667 -89.8289 352° North 165 190 7,400  Level Chicago Center
Tue 10:51:28 AM 40.9128 -89.8375 352° North 167 192 7,900 290 Climbing Chicago Center
Tue 10:52:29 AM 40.9744 -89.8481 353° North 176 203 8,000 49 Climbing Chicago Center
Tue 10:53:31 AM 41.0275 -89.8567 353° North 185 213 8,000  Level Chicago Center
Tue 10:54:33 AM 41.0792 -89.8658 352° North 188 216 8,000  Level Chicago Center
Tue 10:55:35 AM 41.1317 -89.8747 353° North 188 216 8,000  Level Chicago Center
Tue 10:56:37 AM 41.1850 -89.8844 352° North 191 220 8,000  Level Chicago Center
Tue 10:57:40 AM 41.2367 -89.8933 353° North 189 217 8,000  Level Chicago Center
Tue 10:58:42 AM 41.3000 -89.9042 353° North 190 219 8,000  Level Chicago Center
Tue 10:59:44 AM 41.3528 -89.9133 353° North 191 220 8,000  Level Chicago Center
Tue 11:00:46 AM 41.4064 -89.9225 353° North 193 222 8,000  Level Chicago Center
Tue 11:01:48 AM 41.4597 -89.9319 352° North 193 222 8,000  Level Chicago Center
Tue 11:02:50 AM 41.5117 -89.9431 351° North 190 219 8,000  Level Chicago Center
Tue 11:03:52 AM 41.5656 -89.9517 353° North 193 222 8,000  Level Chicago Center
Tue 11:04:54 AM 41.6294 -89.9658 351° North 195 224 8,000  Level Chicago Center
Tue 11:05:56 AM 41.6842 -89.9756 352° North 197 227 8,000  Level Chicago Center
Tue 11:06:58 AM 41.7386 -89.9856 352° North 198 228 8,000  Level Chicago Center
Tue 11:08:00 AM 41.7939 -89.9931 354° North 199 229 8,000  Level Chicago Center
Tue 11:09:03 AM 41.8558 -90.0042 352° North 201 231 8,000  Level Chicago Center
Tue 11:10:04 AM 41.9103 -90.0144 352° North 199 229 8,000  Level Chicago Center
Tue 11:11:07 AM 41.9644 -90.0250 352° North 198 228 8,000  Level Chicago Center
Tue 11:12:09 AM 42.0169 -90.0325 354° North 193 222 8,000  Level Chicago Center
Tue 11:13:11 AM 42.0697 -90.0431 352° North 192 221 8,000  Level Chicago Center
Tue 11:14:13 AM 42.1317 -90.0533 353° North 190 219 8,000  Level Chicago Center
Tue 11:15:15 AM 42.1847 -90.0622 353° North 191 220 8,000  Level Chicago Center
Tue 11:16:17 AM 42.2378 -90.0731 351° North 193 222 8,000  Level Chicago Center
Tue 11:17:19 AM 42.2897 -90.0828 352° North 193 222 8,000  Level Chicago Center
Tue 11:18:21 AM 42.3539 -90.0944 352° North 195 224 8,000  Level Chicago Center
Tue 11:19:23 AM 42.4069 -90.1031 353° North 195 224 8,000  Level Chicago Center
Tue 11:20:25 AM 42.4603 -90.1131 352° North 196 226 8,000  Level Chicago Center
Tue 11:21:28 AM 42.5128 -90.1228 352° North 193 222 8,000  Level Chicago Center
Tue 11:22:30 AM 42.5661 -90.1331 352° North 194 223 8,000  Level Chicago Center
Tue 11:23:32 AM 42.6306 -90.1450 352° North 197 227 8,000  Level Chicago Center
Tue 11:24:34 AM 42.6819 -90.1542 353° North 191 220 8,000  Level Chicago Center
Tue 11:25:36 AM 42.7356 -90.1644 352° North 193 222 8,000  Level Chicago Center
Tue 11:26:38 AM 42.7875 -90.1736 353° North 192 221 8,000  Level Chicago Center
Tue 11:27:40 AM 42.8519 -90.1856 352° North 195 224 8,000  Level Chicago Center
Tue 11:28:42 AM 42.9050 -90.1950 353° North 194 223 8,000  Level Chicago Center
Tue 11:29:44 AM 42.9578 -90.2058 351° North 195 224 8,000  Level Chicago Center
Tue 11:30:46 AM 43.0111 -90.2156 352° North 195 224 8,000  Level Chicago Center
Tue 11:31:48 AM 43.0644 -90.2247 353° North 195 224 8,000  Level Chicago Center
Tue 11:32:51 AM 43.1267 -90.2367 352° North 193 222 8,000  Level Chicago Center
Tue 11:33:53 AM 43.1783 -90.2467 352° North 190 219 8,000  Level Chicago Center
Tue 11:34:55 AM 43.2306 -90.2569 352° North 189 217 8,000  Level Chicago Center
Tue 11:35:57 AM 43.2822 -90.2656 353° North 188 216 8,000  Level Chicago Center
Tue 11:36:59 AM 43.3439 -90.2781 352° North 189 217 8,000  Level Chicago Center
Tue 11:38:01 AM 43.3967 -90.2878 352° North 192 221 8,000  Level Chicago Center
Tue 11:39:03 AM 43.4492 -90.2975 352° North 193 222 8,000  Level Chicago Center
Tue 11:40:05 AM 43.5006 -90.3072 352° North 191 220 8,000  Level Chicago Center
Tue 11:41:07 AM 43.5531 -90.3164 353° North 190 219 8,000  Level Chicago Center
Tue 11:42:09 AM 43.6158 -90.3297 351° North 191 220 8,000  Level Chicago Center
Tue 11:43:00 AM 43.6600 -90.3364 354° North 188 216 8,000  Level Minneapolis Center
Tue 11:44:02 AM 43.7144 -90.3469 352° North 188 216 8,000  Level Minneapolis Center
Tue 11:45:04 AM 43.7647 -90.3561 352° North 189 217 8,000  Level Minneapolis Center
Tue 11:46:06 AM 43.8189 -90.3669 352° North 187 215 8,000  Level Minneapolis Center
Tue 11:47:08 AM 43.8728 -90.3772 352° North 187 215 8,000  Level Minneapolis Center
Tue 11:48:11 AM 43.9267 -90.3878 352° North 185 213 8,000  Level Minneapolis Center
Tue 11:49:13 AM 43.9806 -90.3978 352° North 187 215 8,000  Level Minneapolis Center
Tue 11:50:15 AM 44.0311 -90.4083 351° North 189 217 8,000  Level Minneapolis Center
Tue 11:51:29 AM 44.0856 -90.4192 352° North 189 217 8,000  Level Minneapolis Center
Tue 11:52:31 AM 44.1528 -90.4317 352° North 189 217 8,000  Level Minneapolis Center
Tue 11:53:45 AM 44.2069 -90.4428 352° North 188 216 8,000  Level Minneapolis Center
Tue 11:54:48 AM 44.2681 -90.4550 352° North 184 212 8,000  Level Minneapolis Center
Tue 11:55:50 AM 44.3211 -90.4653 352° North 183 211 8,000  Level Minneapolis Center
Tue 11:56:52 AM 44.3747 -90.4756 352° North 184 212 8,000  Level Minneapolis Center
Tue 11:57:54 AM 44.4244 -90.4861 351° North 188 216 8,000  Level Minneapolis Center
Tue 11:58:56 AM 44.4794 -90.4972 352° North 189 217 8,000  Level Minneapolis Center
Tue 12:00:02 PM 44.5356 -90.5072 353° North 182 209 8,000  Level Minneapolis Center
Tue 12:01:04 PM 44.5897 -90.5192 351° North 188 216 8,000  Level Minneapolis Center
Tue 12:02:06 PM 44.6419 -90.5289 352° North 180 207 8,000  Level Minneapolis Center
Tue 12:03:08 PM 44.6956 -90.5403 351° North 186 214 8,000  Level Minneapolis Center
Tue 12:04:10 PM 44.7433 -90.5492 352° North 183 211 8,000  Level Minneapolis Center
Tue 12:05:12 PM 44.7878 -90.5583 352° North 180 207 8,000  Level Minneapolis Center
Tue 12:06:15 PM 44.8497 -90.5700 352° North 187 215 8,000  Level Minneapolis Center
Tue 12:07:17 PM 44.9033 -90.5811 352° North 187 215 8,000  Level Minneapolis Center
Tue 12:08:19 PM 44.9553 -90.5914 352° North 179 206 8,000  Level Minneapolis Center
Tue 12:09:21 PM 45.0061 -90.6025 351° North 179 206 8,000  Level Minneapolis Center
Tue 12:10:23 PM 45.0447 -90.6103 352° North 177 204 8,000  Level Minneapolis Center
Tue 12:11:25 PM 45.1064 -90.6228 352° North 173 199 8,000  Level Minneapolis Center
Tue 12:12:27 PM 45.1500 -90.6294 354° North 172 198 8,000  Level Minneapolis Center
Tue 12:13:29 PM 45.2008 -90.6392 352° North 177 204 8,000  Level Minneapolis Center
Tue 12:14:31 PM 45.2500 -90.6494 352° North 179 206 8,000  Level Minneapolis Center
Tue 12:15:33 PM 45.3094 -90.6608 352° North 180 207 8,000  Level Minneapolis Center
Tue 12:16:35 PM 45.3594 -90.6711 352° North 180 207 8,000  Level Minneapolis Center
Tue 12:17:37 PM 45.4094 -90.6822 351° North 181 208 8,000  Level Minneapolis Center
Tue 12:18:39 PM 45.4603 -90.6922 352° North 183 211 8,000  Level Minneapolis Center
Tue 12:19:42 PM 45.5108 -90.7019 352° North 183 211 8,000  Level Minneapolis Center
Tue 12:20:44 PM 45.5606 -90.7131 351° North 182 209 8,000  Level Minneapolis Center
Tue 12:21:46 PM 45.6231 -90.7253 352° North 184 212 8,000  Level Minneapolis Center
Tue 12:22:48 PM 45.6731 -90.7353 352° North 184 212 8,000  Level Minneapolis Center
Tue 12:23:50 PM 45.7236 -90.7475 350° North 183 211 8,000  Level Minneapolis Center
Tue 12:24:52 PM 45.7750 -90.7572 352° North 185 213 8,000 -145 Level Minneapolis Center
Tue 12:25:54 PM 45.8244 -90.7672 352° North 183 211 7,700 -290 Descending Minneapolis Center
Tue 12:26:56 PM 45.8758 -90.7775 352° North 183 211 7,400 -290 Descending Minneapolis Center
Tue 12:27:58 PM 45.9261 -90.7872 352° North 184 212 7,100 -339 Descending Minneapolis Center
Tue 12:29:00 PM 45.9872 -90.8014 351° North 183 211 6,700 -339 Descending Minneapolis Center
Tue 12:30:02 PM 46.0394 -90.8131 351° North 187 215 6,400 -339 Descending Minneapolis Center
Tue 12:31:04 PM 46.0889 -90.8242 351° North 184 212 6,000 -339 Descending Minneapolis Center
Tue 12:32:06 PM 46.1425 -90.8328 354° North 187 215 5,700 -307 Descending Minneapolis Center
Tue 12:33:21 PM 46.2050 -90.8472 351° North 188 216 5,300 -320 Descending Minneapolis Center
Tue 12:35:00 PM 46.2874 -90.8641 352° North  Level FlightAware Approximate
Tue 12:42:00 PM 46.5333 -90.9167 341° North  Level FlightAware Approximate
Tue 12:43:00 PM 46.5485 -90.9190 341° North  Level Estimated
Tue 12:44:00 PM 46.5485 -90.9190 341° North  Level Estimated
Tue 12:45:00 PM 46.5485 -90.9190 341° North  Level Estimated
Tue 12:46:00 PM 46.5485 -90.9190 341° North  Level Estimated
Tue 12:47:00 PM 46.5485 -90.9190 341° North  Level Estimated

Login

Don't have an account? Register now (free) for customized features, flight alerts, and more!